Time;durP1;ratioP1;P1;durP2;ratioP2;P2;SDS_P1;SDS_P2;PMS_P1;PMS_P2;Temp;Humidity;BMP_temperature;BMP_pressure;BME280_temperature;BME280_humidity;BME280_pressure;Samples;Min_cycle;Max_cycle;Signal;HPM_P1;HPM_P2
2023/12/15 00:00:25;;;;;;;67.07;40.38;;;;;;;6.71;100.00;99752.31;5032473;28;20483;-80
2023/12/15 00:02:50;;;;;;;66.90;40.47;;;;;;;6.51;100.00;99701.91;5032199;28;20100;-79
2023/12/15 00:05:16;;;;;;;75.05;48.15;;;;;;;6.65;100.00;99761.06;5030776;28;20033;-77
2023/12/15 00:07:42;;;;;;;79.20;52.97;;;;;;;6.76;100.00;99770.25;5044678;28;20031;-79
2023/12/15 00:10:07;;;;;;;97.57;63.45;;;;;;;6.62;100.00;99764.94;5052058;28;20029;-82
2023/12/15 00:12:33;;;;;;;151.95;91.00;;;;;;;6.60;100.00;99758.22;5051865;28;20137;-79
2023/12/15 00:14:58;;;;;;;103.80;66.10;;;;;;;6.67;100.00;99763.50;5051556;28;20063;-79
2023/12/15 00:17:24;;;;;;;55.03;34.55;;;;;;;6.77;100.00;99764.75;5048315;28;20056;-80
2023/12/15 00:19:49;;;;;;;47.83;28.08;;;;;;;6.38;100.00;99708.00;5051412;28;20413;-83
2023/12/15 00:22:14;;;;;;;42.30;25.92;;;;;;;6.99;100.00;99764.59;5049938;28;20025;-79
2023/12/15 00:24:40;;;;;;;49.00;29.70;;;;;;;7.08;100.00;99771.31;5050233;28;20033;-79
2023/12/15 00:27:05;;;;;;;45.80;27.73;;;;;;;7.09;100.00;99780.91;5051606;28;20017;-78
2023/12/15 00:29:31;;;;;;;35.92;23.10;;;;;;;7.18;100.00;99773.56;5051992;28;20541;-79
2023/12/15 00:31:57;;;;;;;34.08;22.83;;;;;;;7.54;100.00;99799.69;5050372;28;20106;-79
2023/12/15 00:34:22;;;;;;;30.85;17.90;;;;;;;7.52;100.00;99779.66;5053617;28;20025;-78
2023/12/15 00:36:47;;;;;;;28.77;18.27;;;;;;;7.54;100.00;99797.03;5051876;28;20056;-79
2023/12/15 00:39:13;;;;;;;29.92;18.20;;;;;;;7.56;100.00;99792.34;5055026;28;20025;-78
2023/12/15 00:41:38;;;;;;;27.17;16.77;;;;;;;7.50;100.00;99813.53;5054982;28;20112;-79
2023/12/15 00:44:04;;;;;;;23.10;15.20;;;;;;;7.72;100.00;99830.06;5055348;28;20512;-79
2023/12/15 00:46:29;;;;;;;26.70;15.05;;;;;;;7.59;100.00;99810.47;5054708;28;20036;-80
2023/12/15 00:48:55;;;;;;;20.17;12.18;;;;;;;7.37;100.00;99764.78;5038302;28;20413;-79
2023/12/15 00:51:21;;;;;;;19.67;10.10;;;;;;;7.63;100.00;99821.50;5035701;28;20407;-78
2023/12/15 00:53:46;;;;;;;13.65;7.35;;;;;;;7.48;100.00;99792.53;5034919;28;20021;-81
2023/12/15 00:56:11;;;;;;;12.68;7.70;;;;;;;7.69;100.00;99820.69;5041592;28;20029;-79
2023/12/15 00:58:37;;;;;;;11.23;5.78;;;;;;;7.98;100.00;99845.97;5051689;28;20060;-78
2023/12/15 01:01:03;;;;;;;9.13;5.22;;;;;;;7.91;100.00;99818.63;5054694;28;20098;-80
2023/12/15 01:03:30;;;;;;;8.77;4.07;;;;;;;7.70;100.00;99801.06;5053767;28;20049;-79
2023/12/15 01:05:56;;;;;;;7.63;3.42;;;;;;;8.12;100.00;99851.25;5055176;28;20486;-79
2023/12/15 01:08:21;;;;;;;5.80;2.20;;;;;;;8.20;100.00;99837.75;5054969;28;20025;-79
2023/12/15 01:10:47;;;;;;;3.00;1.35;;;;;;;8.33;100.00;99874.91;5053415;28;20406;-78
2023/12/15 01:13:12;;;;;;;2.10;1.00;;;;;;;7.97;100.00;99827.59;5055394;28;20017;-78
2023/12/15 01:15:39;;;;;;;1.48;0.82;;;;;;;8.33;100.00;99863.47;5054654;28;20116;-78
2023/12/15 01:18:04;;;;;;;2.72;0.95;;;;;;;7.95;100.00;99819.03;5054673;28;20025;-80
2023/12/15 01:20:30;;;;;;;0.50;0.40;;;;;;;8.30;100.00;99859.38;5054751;28;20470;-78
2023/12/15 01:22:55;;;;;;;1.60;0.40;;;;;;;8.28;100.00;99842.84;5054518;28;20027;-79
2023/12/15 01:25:21;;;;;;;0.63;0.40;;;;;;;8.36;100.00;99866.53;5054774;28;20040;-78
2023/12/15 01:27:46;;;;;;;1.13;0.50;;;;;;;8.52;100.00;99867.09;5043280;28;20036;-80
2023/12/15 01:30:12;;;;;;;1.02;0.35;;;;;;;8.42;100.00;99857.75;5053229;28;20033;-78
2023/12/15 01:32:37;;;;;;;1.65;0.47;;;;;;;8.20;100.00;99827.13;5054111;28;20535;-78
2023/12/15 01:35:03;;;;;;;0.88;0.20;;;;;;;8.46;100.00;99868.78;5053024;28;20033;-77
2023/12/15 01:37:29;;;;;;;0.88;0.30;;;;;;;8.34;100.00;99865.09;5053708;28;20083;-80
2023/12/15 01:39:54;;;;;;;1.52;0.30;;;;;;;8.27;100.00;99848.34;5054706;28;20402;-79
2023/12/15 01:42:20;;;;;;;0.43;0.22;;;;;;;8.52;100.00;99893.69;5054642;28;20083;-80
2023/12/15 01:44:45;;;;;;;0.85;0.40;;;;;;;8.45;100.00;99888.38;5053713;28;20025;-81
2023/12/15 01:47:18;;;;;;;0.70;0.30;;;;;;;8.48;100.00;99892.47;5053806;28;20409;-79
2023/12/15 01:49:47;;;;;;;0.57;0.30;;;;;;;8.44;100.00;99884.94;5051756;28;20032;-79
2023/12/15 01:52:13;;;;;;;0.73;0.40;;;;;;;8.38;100.00;99869.78;5053838;28;20490;-79
2023/12/15 01:54:39;;;;;;;0.30;0.30;;;;;;;8.68;100.00;99892.41;5053061;28;20095;-80
2023/12/15 01:57:05;;;;;;;1.13;0.50;;;;;;;8.76;100.00;99881.53;5052753;28;20090;-81
2023/12/15 01:59:44;;;;;;;0.85;0.47;;;;;;;8.47;100.00;99867.72;5038001;28;20026;-79
2023/12/15 02:02:10;;;;;;;2.72;1.20;;;;;;;8.65;100.00;99914.91;5033496;28;20030;-79
2023/12/15 02:04:36;;;;;;;0.63;0.40;;;;;;;8.33;100.00;99861.63;5033961;28;20540;-80
2023/12/15 02:07:01;;;;;;;0.55;0.30;;;;;;;8.52;100.00;99899.00;5039853;28;20032;-78
2023/12/15 02:09:27;;;;;;;1.35;0.40;;;;;;;8.55;100.00;99904.72;5051566;28;20397;-79
2023/12/15 02:11:52;;;;;;;1.17;0.63;;;;;;;8.50;100.00;99901.03;5053591;28;20108;-80
2023/12/15 02:14:17;;;;;;;0.88;0.50;;;;;;;8.74;100.00;99926.13;5053583;28;20032;-79
2023/12/15 02:16:43;;;;;;;1.17;0.32;;;;;;;8.56;100.00;99900.22;5053104;28;20032;-79
2023/12/15 02:19:08;;;;;;;0.90;0.30;;;;;;;8.64;100.00;99918.59;5053064;28;20029;-78
2023/12/15 02:21:34;;;;;;;0.73;0.30;;;;;;;8.63;100.00;99896.50;5053565;28;20512;-79
2023/12/15 02:23:59;;;;;;;0.75;0.40;;;;;;;8.84;100.00;99924.63;5051840;28;20494;-81
2023/12/15 02:26:24;;;;;;;0.82;0.47;;;;;;;8.94;100.00;99952.66;5051969;28;20025;-80
2023/12/15 02:28:50;;;;;;;0.50;0.30;;;;;;;8.68;100.00;99897.72;5050029;28;20024;-81
2023/12/15 02:31:17;;;;;;;2.13;0.60;;;;;;;8.53;100.00;99914.75;5052601;28;20056;-79
2023/12/15 02:33:42;;;;;;;1.17;0.52;;;;;;;8.65;100.00;99941.50;5052837;28;20021;-79
2023/12/15 02:36:08;;;;;;;1.30;0.68;;;;;;;8.78;100.00;99959.25;5053395;28;20025;-79
2023/12/15 02:38:33;;;;;;;0.63;0.30;;;;;;;8.78;100.00;99969.88;5052471;28;20038;-79
2023/12/15 02:40:59;;;;;;;1.17;0.40;;;;;;;8.38;100.00;99930.91;5032792;28;20026;-80
2023/12/15 02:43:24;;;;;;;0.63;0.40;;;;;;;8.57;100.00;99966.47;5032547;28;20017;-79
2023/12/15 02:45:49;;;;;;;0.77;0.50;;;;;;;8.62;100.00;99995.06;5033560;28;20079;-80
2023/12/15 02:48:16;;;;;;;1.02;0.32;;;;;;;8.48;100.00;99950.94;5044077;28;20025;-79
2023/12/15 02:50:42;;;;;;;0.63;0.43;;;;;;;8.61;100.00;99962.34;5053381;28;20028;-80
2023/12/15 02:53:08;;;;;;;0.52;0.30;;;;;;;8.51;100.00;99961.97;5053086;28;20064;-77
2023/12/15 02:55:33;;;;;;;2.38;0.80;;;;;;;8.71;100.00;99983.19;5053255;28;20819;-78
2023/12/15 02:57:58;;;;;;;3.80;1.30;;;;;;;8.68;100.00;100002.22;5051123;28;20025;-79
2023/12/15 03:00:24;;;;;;;1.27;0.50;;;;;;;8.68;100.00;100012.84;5037938;28;20096;-78
2023/12/15 03:02:49;;;;;;;0.70;0.47;;;;;;;8.69;100.00;99995.06;5033001;28;20029;-78
2023/12/15 03:05:15;;;;;;;0.82;0.40;;;;;;;8.63;100.00;100007.34;5033006;28;20049;-79
2023/12/15 03:07:40;;;;;;;0.68;0.35;;;;;;;8.46;100.00;99985.72;5037662;28;20052;-79
2023/12/15 03:10:06;;;;;;;0.30;0.20;;;;;;;8.50;100.00;99986.94;5041788;28;20546;-80
2023/12/15 03:12:32;;;;;;;0.68;0.30;;;;;;;8.48;100.00;99998.78;5032956;28;20025;-79
2023/12/15 03:14:58;;;;;;;0.55;0.30;;;;;;;8.47;100.00;99997.16;5033090;28;20025;-78
2023/12/15 03:17:24;;;;;;;1.35;0.40;;;;;;;8.47;100.00;100002.47;5032842;28;20024;-78
2023/12/15 03:19:50;;;;;;;0.63;0.30;;;;;;;8.49;100.00;100024.34;5044479;28;20029;-81
2023/12/15 03:22:16;;;;;;;0.20;0.15;;;;;;;8.36;100.00;100012.66;5051793;28;20025;-79
2023/12/15 03:24:41;;;;;;;0.50;0.30;;;;;;;8.48;100.00;100018.22;5052676;28;20025;-79
2023/12/15 03:27:06;;;;;;;1.58;0.38;;;;;;;8.23;100.00;99988.75;5051700;28;20390;-80
2023/12/15 03:29:32;;;;;;;0.90;0.40;;;;;;;8.59;100.00;100017.56;5053067;28;20515;-78
2023/12/15 03:31:57;;;;;;;2.85;1.02;;;;;;;8.50;100.00;100020.63;5051937;28;20128;-79
2023/12/15 03:34:22;;;;;;;1.95;0.60;;;;;;;8.48;100.00;100026.19;5052331;28;20021;-78
2023/12/15 03:36:48;;;;;;;1.13;0.60;;;;;;;8.36;100.00;100027.81;5051791;28;20033;-78
2023/12/15 03:39:14;;;;;;;0.50;0.30;;;;;;;8.41;100.00;100023.50;5049241;28;20060;-79
2023/12/15 03:41:40;;;;;;;1.17;0.65;;;;;;;8.23;100.00;100021.47;5057969;28;20033;-78
2023/12/15 03:44:05;;;;;;;1.02;0.35;;;;;;;8.41;100.00;100031.47;5057528;28;20849;-78
2023/12/15 03:46:31;;;;;;;0.55;0.20;;;;;;;8.42;100.00;100033.13;5058508;28;20051;-80
2023/12/15 03:48:56;;;;;;;1.15;0.28;;;;;;;8.35;100.00;100031.47;5055863;28;20064;-79
2023/12/15 03:51:21;;;;;;;0.60;0.30;;;;;;;8.66;100.00;100076.03;5058120;28;20040;-81
2023/12/15 03:53:47;;;;;;;0.65;0.30;;;;;;;8.60;100.00;100079.53;5058468;28;20059;-79
2023/12/15 03:56:12;;;;;;;0.93;0.43;;;;;;;8.55;100.00;100066.03;5058160;28;20052;-81
2023/12/15 03:58:38;;;;;;;0.35;0.20;;;;;;;8.36;100.00;100047.22;5057683;28;20029;-77
2023/12/15 04:01:04;;;;;;;0.95;0.20;;;;;;;8.70;100.00;100082.56;5045526;28;20041;-81
2023/12/15 04:03:29;;;;;;;0.88;0.38;;;;;;;8.31;100.00;100054.97;5038269;28;20025;-79
2023/12/15 04:05:54;;;;;;;2.38;0.90;;;;;;;8.32;100.00;100048.63;5039419;28;20029;-79
2023/12/15 04:08:20;;;;;;;1.35;0.60;;;;;;;8.53;100.00;100071.56;5042406;28;20154;-77
2023/12/15 04:10:45;;;;;;;0.73;0.22;;;;;;;8.39;100.00;100060.06;5051708;28;20025;-78
2023/12/15 04:13:11;;;;;;;1.50;0.47;;;;;;;8.61;100.00;100094.47;5055942;28;20063;-77
2023/12/15 04:15:38;;;;;;;0.63;0.40;;;;;;;8.19;100.00;100045.97;5054389;28;20432;-77
2023/12/15 04:18:04;;;;;;;1.45;0.30;;;;;;;8.51;100.00;100088.75;5054356;28;20025;-78
2023/12/15 04:20:29;;;;;;;0.93;0.40;;;;;;;8.60;100.00;100106.09;5055743;28;20037;-80
2023/12/15 04:22:55;;;;;;;1.00;0.30;;;;;;;8.43;100.00;100084.44;5055387;28;20102;-80
2023/12/15 04:25:20;;;;;;;0.88;0.50;;;;;;;8.68;100.00;100100.56;5055721;28;20032;-79
2023/12/15 04:27:47;;;;;;;0.60;0.40;;;;;;;8.41;100.00;100063.38;5053953;28;20029;-79
2023/12/15 04:30:12;;;;;;;0.93;0.30;;;;;;;8.44;100.00;100062.97;5043356;28;20025;-79
2023/12/15 04:32:38;;;;;;;1.17;0.60;;;;;;;8.55;100.00;100106.72;5054639;28;20041;-80
2023/12/15 04:35:04;;;;;;;2.22;0.90;;;;;;;8.27;100.00;100048.41;5055263;28;20084;-79
2023/12/15 04:37:29;;;;;;;1.52;0.75;;;;;;;8.67;100.00;100109.59;5054727;28;20036;-82
2023/12/15 04:39:54;;;;;;;2.08;0.65;;;;;;;8.50;100.00;100092.41;5050020;28;20099;-81
2023/12/15 04:42:20;;;;;;;1.58;0.70;;;;;;;8.43;100.00;100087.09;5052393;28;20119;-79
2023/12/15 04:44:45;;;;;;;2.50;1.17;;;;;;;8.56;100.00;100091.59;5050612;28;20028;-82
2023/12/15 04:47:10;;;;;;;1.45;0.90;;;;;;;8.57;100.00;100106.53;5051742;28;20029;-78
2023/12/15 04:49:36;;;;;;;3.95;1.17;;;;;;;8.54;100.00;100106.91;5050542;28;20029;-78
2023/12/15 04:52:01;;;;;;;3.72;1.00;;;;;;;8.37;100.00;100125.91;5051085;28;20519;-79
2023/12/15 04:54:27;;;;;;;2.28;1.10;;;;;;;8.40;100.00;100114.88;5051325;28;20036;-78
2023/12/15 04:56:52;;;;;;;3.28;1.40;;;;;;;8.55;100.00;100116.53;5050117;28;20029;-82
2023/12/15 04:59:17;;;;;;;5.60;2.72;;;;;;;8.46;100.00;100113.28;5050967;28;20035;-79
2023/12/15 05:01:44;;;;;;;6.63;2.92;;;;;;;8.57;100.00;100152.53;5049237;28;20151;-78
2023/12/15 05:04:09;;;;;;;6.50;3.13;;;;;;;8.34;100.00;100115.69;5049761;28;20028;-80
2023/12/15 05:06:35;;;;;;;8.30;3.00;;;;;;;8.29;100.00;100117.31;5050852;28;20040;-80
2023/12/15 05:09:04;;;;;;;9.27;3.58;;;;;;;8.18;100.00;100098.28;5047255;28;20029;-79
2023/12/15 05:11:33;;;;;;;6.40;2.60;;;;;;;8.45;100.00;100144.31;5033539;28;20037;-81
2023/12/15 05:13:58;;;;;;;7.05;3.88;;;;;;;8.36;100.00;100144.72;5031288;28;20032;-79
2023/12/15 05:16:24;;;;;;;10.50;4.18;;;;;;;8.41;100.00;100150.25;5030730;28;20025;-79
2023/12/15 05:18:49;;;;;;;18.15;8.18;;;;;;;8.53;100.00;100177.06;5031791;28;20105;-79
2023/12/15 05:21:14;;;;;;;11.35;5.63;;;;;;;8.33;100.00;100151.22;5045892;28;20029;-78
2023/12/15 05:23:40;;;;;;;13.02;5.95;;;;;;;8.26;100.00;100150.41;5034218;28;20047;-79
2023/12/15 05:26:05;;;;;;;12.13;4.97;;;;;;;8.54;100.00;100179.53;5033021;28;20375;-82
2023/12/15 05:28:31;;;;;;;18.27;8.32;;;;;;;8.67;100.00;100185.88;5034466;28;20025;-79
2023/12/15 05:30:56;;;;;;;6.03;2.85;;;;;;;8.34;100.00;100191.94;5050869;28;20037;-79
2023/12/15 05:33:21;;;;;;;38.55;14.95;;;;;;;8.26;100.00;100192.94;5054156;28;20032;-79
2023/12/15 05:35:47;;;;;;;10.38;5.07;;;;;;;8.43;100.00;100196.06;5052636;28;20098;-79
2023/12/15 05:38:12;;;;;;;9.02;4.45;;;;;;;8.42;100.00;100205.06;5052414;28;20037;-78
2023/12/15 05:40:38;;;;;;;4.97;2.50;;;;;;;8.01;100.00;100153.63;5053586;28;20086;-78
2023/12/15 05:43:03;;;;;;;4.47;2.35;;;;;;;8.27;100.00;100181.25;5033826;28;20063;-77
2023/12/15 05:45:29;;;;;;;4.63;2.20;;;;;;;8.38;100.00;100201.94;5032232;28;20029;-79
2023/12/15 05:47:55;;;;;;;4.68;2.10;;;;;;;8.25;100.00;100199.25;5032173;28;20060;-78
2023/12/15 05:50:21;;;;;;;4.22;1.80;;;;;;;8.09;100.00;100196.94;5043067;28;20031;-79
2023/12/15 05:52:47;;;;;;;2.45;1.60;;;;;;;8.27;100.00;100210.50;5053059;28;20057;-79
2023/12/15 05:55:12;;;;;;;5.30;2.08;;;;;;;7.99;100.00;100203.47;5053039;28;20208;-78
2023/12/15 05:57:37;;;;;;;7.57;2.50;;;;;;;8.09;100.00;100212.88;5052218;28;20387;-79
2023/12/15 06:00:03;;;;;;;3.30;1.88;;;;;;;7.91;100.00;100187.72;5053432;28;20155;-79
2023/12/15 06:02:28;;;;;;;3.88;2.17;;;;;;;8.19;100.00;100230.09;5049051;28;20044;-79
2023/12/15 06:04:54;;;;;;;4.43;2.35;;;;;;;8.27;100.00;100241.56;5051642;28;20107;-79
2023/12/15 06:07:19;;;;;;;2.40;1.45;;;;;;;8.11;100.00;100232.09;5053702;28;20021;-79
2023/12/15 06:09:45;;;;;;;3.85;1.80;;;;;;;8.33;100.00;100262.03;5049202;28;20502;-79
2023/12/15 06:12:11;;;;;;;4.38;1.60;;;;;;;8.09;100.00;100250.06;5044946;28;20040;-79
2023/12/15 06:14:39;;;;;;;7.85;3.65;;;;;;;8.04;100.00;100237.38;5052974;28;20036;-79
2023/12/15 06:17:07;;;;;;;4.93;2.35;;;;;;;7.92;100.00;100226.50;5052766;28;20033;-79
2023/12/15 06:19:34;;;;;;;39.33;22.33;;;;;;;7.77;100.00;100223.19;5052814;28;20036;-80
2023/12/15 06:22:00;;;;;;;53.63;26.00;;;;;;;8.14;100.00;100263.59;5052416;28;20029;-79
2023/12/15 06:24:25;;;;;;;30.05;16.13;;;;;;;8.07;100.00;100262.72;5052353;28;20398;-80
2023/12/15 06:26:51;;;;;;;71.18;56.38;;;;;;;7.92;100.00;100250.41;5052692;28;20043;-79
2023/12/15 06:29:16;;;;;;;110.55;98.95;;;;;;;7.98;100.00;100280.69;5051198;28;20024;-79
2023/12/15 06:31:48;;;;;;;40.65;36.40;;;;;;;8.00;100.00;100303.34;5049454;28;20489;-80
2023/12/15 06:34:13;;;;;;;25.00;21.38;;;;;;;7.83;100.00;100252.41;5032129;28;20030;-82
2023/12/15 06:36:39;;;;;;;20.00;16.35;;;;;;;8.12;100.00;100305.47;5031518;28;20025;-80
2023/12/15 06:39:05;;;;;;;28.05;19.42;;;;;;;8.01;100.00;100302.34;5030507;28;20022;-80
2023/12/15 06:41:30;;;;;;;20.73;16.15;;;;;;;7.82;100.00;100252.59;5044211;28;20029;-81
2023/12/15 06:43:56;;;;;;;17.17;12.73;;;;;;;7.94;100.00;100290.84;5031446;28;20021;-80
2023/12/15 06:46:21;;;;;;;15.32;12.13;;;;;;;8.08;100.00;100317.50;5031997;28;20117;-81
2023/12/15 06:48:47;;;;;;;9.48;6.70;;;;;;;7.98;100.00;100312.53;5032224;28;20029;-80
2023/12/15 06:51:12;;;;;;;8.70;6.10;;;;;;;7.98;100.00;100299.25;5042030;28;20071;-80
2023/12/15 06:53:37;;;;;;;9.38;5.70;;;;;;;8.04;100.00;100307.25;5034535;28;20467;-82
2023/12/15 06:56:03;;;;;;;9.10;5.60;;;;;;;8.04;100.00;100296.63;5032125;28;20493;-80
2023/12/15 06:58:29;;;;;;;8.55;6.82;;;;;;;8.09;100.00;100300.53;5031742;28;20025;-80
2023/12/15 07:00:54;;;;;;;14.60;13.10;;;;;;;8.09;100.00;100309.34;5032197;28;20124;-80
2023/12/15 07:03:20;;;;;;;28.23;25.40;;;;;;;7.82;100.00;100272.00;5035046;28;20069;-80
2023/12/15 07:05:45;;;;;;;16.88;12.68;;;;;;;8.11;100.00;100319.75;5030773;28;20025;-80
2023/12/15 07:08:11;;;;;;;15.18;11.90;;;;;;;8.18;100.00;100340.03;5031912;28;20022;-81
2023/12/15 07:10:36;;;;;;;12.32;9.15;;;;;;;8.10;100.00;100326.09;5035405;28;20020;-84
2023/12/15 07:13:01;;;;;;;13.85;11.63;;;;;;;8.18;100.00;100347.19;5040926;28;20033;-80
2023/12/15 07:15:28;;;;;;;11.77;9.27;;;;;;;8.22;100.00;100332.50;5031805;28;20045;-79
2023/12/15 07:17:54;;;;;;;15.38;11.23;;;;;;;8.07;100.00;100326.47;5031410;28;20561;-79
2023/12/15 07:20:20;;;;;;;43.00;28.40;;;;;;;8.17;100.00;100345.53;5031575;28;20462;-79
2023/12/15 07:22:46;;;;;;;49.42;33.25;;;;;;;8.01;100.00;100304.19;5048778;28;20021;-80
2023/12/15 07:25:12;;;;;;;70.13;48.65;;;;;;;8.12;100.00;100313.44;5050224;28;20592;-80
2023/12/15 07:27:37;;;;;;;57.08;43.67;;;;;;;8.21;100.00;100320.22;5051484;28;20067;-80
2023/12/15 07:30:03;;;;;;;52.45;35.88;;;;;;;8.31;100.00;100333.16;5051429;28;20029;-80
2023/12/15 07:32:29;;;;;;;36.25;28.42;;;;;;;8.02;100.00;100330.53;5048307;28;20079;-80
2023/12/15 07:34:54;;;;;;;41.13;28.23;;;;;;;8.22;100.00;100359.06;5031367;28;20021;-81
2023/12/15 07:37:19;;;;;;;60.80;37.40;;;;;;;8.38;100.00;100377.34;5030242;28;20029;-79
2023/12/15 07:39:45;;;;;;;38.78;21.90;;;;;;;8.19;100.00;100362.09;5031662;28;20026;-80
2023/12/15 07:42:11;;;;;;;20.15;17.95;;;;;;;8.34;100.00;100392.03;5043638;28;20127;-83
2023/12/15 07:44:37;;;;;;;17.17;15.05;;;;;;;8.07;100.00;100348.56;5050532;28;20562;-80
2023/12/15 07:47:03;;;;;;;13.88;11.43;;;;;;;8.20;100.00;100385.81;5051135;28;20115;-80
2023/12/15 07:49:30;;;;;;;65.20;49.25;;;;;;;8.19;100.00;100384.19;5051013;28;20032;-79
2023/12/15 07:51:56;;;;;;;62.65;47.92;;;;;;;7.91;100.00;100365.63;5049886;28;20029;-80
2023/12/15 07:54:21;;;;;;;35.72;25.92;;;;;;;8.05;100.00;100383.28;5049552;28;20071;-80
2023/12/15 07:56:47;;;;;;;31.65;19.85;;;;;;;8.30;100.00;100422.69;5050752;28;20057;-80
2023/12/15 07:59:12;;;;;;;20.42;14.32;;;;;;;8.12;100.00;100425.00;5051241;28;20056;-80
2023/12/15 08:01:38;;;;;;;17.65;13.07;;;;;;;8.01;100.00;100408.59;5038898;28;20040;-80
2023/12/15 08:04:05;;;;;;;36.63;26.90;;;;;;;8.15;100.00;100424.59;5043725;28;20108;-83
2023/12/15 08:06:31;;;;;;;26.42;19.02;;;;;;;8.35;100.00;100436.19;5050571;28;20028;-79
2023/12/15 08:08:56;;;;;;;17.35;12.80;;;;;;;8.29;100.00;100452.09;5050813;28;20032;-78
2023/12/15 08:11:22;;;;;;;30.38;23.50;;;;;;;8.10;100.00;100417.22;5051026;28;20111;-80
2023/12/15 08:13:48;;;;;;;26.88;20.48;;;;;;;8.22;100.00;100441.44;5047591;28;20527;-79
2023/12/15 08:16:13;;;;;;;31.15;23.08;;;;;;;8.28;100.00;100448.63;5050981;28;20029;-78
2023/12/15 08:18:41;;;;;;;68.50;33.42;;;;;;;8.29;100.00;100450.25;5050540;28;20452;-79
2023/12/15 08:21:06;;;;;;;124.90;63.08;;;;;;;8.33;100.00;100466.63;5050681;28;20025;-78
2023/12/15 08:23:32;;;;;;;142.18;68.35;;;;;;;8.36;100.00;100466.25;5049223;28;20104;-79
2023/12/15 08:25:57;;;;;;;207.93;114.38;;;;;;;8.33;100.00;100466.63;5036130;28;20033;-84
2023/12/15 08:28:23;;;;;;;154.35;85.63;;;;;;;8.15;100.00;100437.88;5035307;28;20025;-79
2023/12/15 08:30:49;;;;;;;56.60;39.88;;;;;;;8.22;100.00;100412.19;5047544;28;20029;-80
2023/12/15 08:33:15;;;;;;;79.03;57.28;;;;;;;8.22;100.00;100454.72;5049696;28;20025;-79
2023/12/15 08:35:41;;;;;;;58.97;43.92;;;;;;;8.39;100.00;100463.19;5050503;28;20107;-79
2023/12/15 08:38:06;;;;;;;40.92;29.33;;;;;;;8.62;100.00;100462.94;5050895;28;20061;-81
2023/12/15 08:40:32;;;;;;;32.30;25.48;;;;;;;9.31;100.00;100482.50;5050347;28;20064;-80
2023/12/15 08:42:58;;;;;;;33.03;28.75;;;;;;;9.72;100.00;100442.41;5047831;28;20087;-81
2023/12/15 08:45:24;;;;;;;33.67;23.50;;;;;;;10.47;100.00;100460.03;5050141;28;20490;-80
2023/12/15 08:47:49;;;;;;;31.92;22.38;;;;;;;10.26;100.00;100499.22;5049116;28;20025;-81
2023/12/15 08:50:15;;;;;;;43.22;30.15;;;;;;;10.17;100.00;100498.59;5050697;28;20028;-80
2023/12/15 08:52:40;;;;;;;19.52;12.35;;;;;;;10.03;100.00;100492.44;5050117;28;20082;-82
2023/12/15 08:55:07;;;;;;;19.45;11.70;;;;;;;10.32;100.00;100490.41;5048692;28;20033;-80
2023/12/15 08:57:32;;;;;;;17.05;10.52;;;;;;;10.48;100.00;100509.66;5054007;28;20032;-82
2023/12/15 08:59:58;;;;;;;19.75;9.68;;;;;;;10.50;100.00;100480.94;5053021;28;20124;-80
2023/12/15 09:02:27;;;;;;;8.20;4.32;;;;;;;10.77;100.00;100508.41;5052895;28;20051;-80
2023/12/15 09:04:52;;;;;;;;;;;;;;;10.08;100.00;100509.66;5040654;28;20030;-82
2023/12/15 09:07:18;;;;;;;7.53;4.43;;;;;;;9.54;100.00;100472.31;5043902;28;19912;-82
2023/12/15 09:09:44;;;;;;;6.40;4.05;;;;;;;9.50;100.00;100513.69;5054010;28;20112;-80
2023/12/15 09:12:10;;;;;;;7.70;4.20;;;;;;;9.34;100.00;100511.38;5052573;28;20417;-82
2023/12/15 09:14:36;;;;;;;8.00;4.55;;;;;;;8.97;100.00;100484.19;5053731;28;20024;-81
2023/12/15 09:17:03;;;;;;;7.65;4.50;;;;;;;9.99;100.00;100501.88;5054106;28;20029;-81
2023/12/15 09:19:28;;;;;;;6.75;3.80;;;;;;;9.61;100.00;100475.81;5054107;28;20040;-80
2023/12/15 09:21:54;;;;;;;5.55;3.45;;;;;;;9.43;100.00;100464.91;5051236;28;20032;-80
2023/12/15 09:24:19;;;;;;;7.20;4.68;;;;;;;9.54;100.00;100488.31;5035234;28;20628;-81
2023/12/15 09:26:46;;;;;;;14.25;8.43;;;;;;;9.76;100.00;100458.81;5033968;28;20037;-81
2023/12/15 09:29:12;;;;;;;9.68;5.65;;;;;;;10.24;100.00;100514.59;5033747;28;20030;-81
2023/12/15 09:31:38;;;;;;;7.18;4.78;;;;;;;10.08;100.00;100493.69;5032333;28;20418;-80
2023/12/15 09:34:03;;;;;;;9.30;5.60;;;;;;;10.20;100.00;100476.03;5046212;28;20491;-81
2023/12/15 09:36:29;;;;;;;9.13;5.22;;;;;;;9.68;100.00;100517.59;5033576;28;20033;-80
2023/12/15 09:38:55;;;;;;;7.55;5.18;;;;;;;9.30;100.00;100523.44;5033434;28;20896;-81
2023/12/15 09:41:20;;;;;;;10.07;7.22;;;;;;;8.69;100.00;100478.97;5033493;28;20543;-80
2023/12/15 09:43:46;;;;;;;10.63;8.20;;;;;;;8.56;100.00;100456.59;5043777;28;20029;-80
2023/12/15 09:46:12;;;;;;;10.30;7.85;;;;;;;8.78;100.00;100494.53;5052109;28;20496;-84
2023/12/15 09:48:38;;;;;;;21.60;16.77;;;;;;;8.44;100.00;100466.94;5051665;28;20033;-81
2023/12/15 09:51:08;;;;;;;26.08;15.35;;;;;;;8.58;100.00;100489.13;5053353;28;20028;-82
2023/12/15 09:53:38;;;;;;;19.67;13.23;;;;;;;8.62;100.00;100503.66;5043057;28;20029;-80
2023/12/15 09:56:05;;;;;;;11.57;6.80;;;;;;;8.72;100.00;100523.75;5049883;28;20508;-85
2023/12/15 09:58:31;;;;;;;16.55;11.13;;;;;;;8.92;100.00;100531.84;5053096;28;20107;-80
2023/12/15 10:00:56;;;;;;;11.80;7.82;;;;;;;8.68;100.00;100515.34;5051611;28;20383;-80
2023/12/15 10:03:22;;;;;;;12.02;8.30;;;;;;;8.79;100.00;100512.16;5051892;28;20094;-82
2023/12/15 10:05:48;;;;;;;10.35;7.35;;;;;;;8.57;100.00;100486.66;5049432;28;20041;-80
2023/12/15 10:08:13;;;;;;;11.40;7.53;;;;;;;8.68;100.00;100494.06;5052913;28;20393;-81
2023/12/15 10:10:39;;;;;;;10.00;7.38;;;;;;;8.38;100.00;100466.88;5051581;28;20029;-80
2023/12/15 10:13:04;;;;;;;8.27;5.18;;;;;;;8.56;100.00;100491.16;5051308;28;20028;-80
2023/12/15 10:15:30;;;;;;;9.45;5.78;;;;;;;8.66;100.00;100490.78;5049913;28;20041;-80
2023/12/15 10:17:55;;;;;;;13.90;10.32;;;;;;;8.74;100.00;100517.22;5052831;28;20072;-81
2023/12/15 10:20:21;;;;;;;9.43;6.07;;;;;;;8.90;100.00;100518.75;5052688;28;20037;-80
2023/12/15 10:22:47;;;;;;;9.48;6.03;;;;;;;8.80;100.00;100524.41;5052524;28;20017;-79
2023/12/15 10:25:23;;;;;;;9.55;6.90;;;;;;;8.79;100.00;100525.44;5048332;28;20021;-79
2023/12/15 10:27:49;;;;;;;10.93;7.80;;;;;;;8.92;100.00;100530.00;5052634;28;20029;-81
2023/12/15 10:30:16;;;;;;;9.07;6.28;;;;;;;8.69;100.00;100526.81;5052790;28;20135;-79
2023/12/15 10:32:43;;;;;;;8.05;5.43;;;;;;;8.80;100.00;100535.06;5052104;28;20053;-80
2023/12/15 10:35:10;;;;;;;8.95;5.93;;;;;;;8.54;100.00;100506.50;5049963;28;20116;-80
2023/12/15 10:37:36;;;;;;;17.08;12.75;;;;;;;8.62;100.00;100511.66;5052039;28;20033;-80
2023/12/15 10:40:02;;;;;;;33.83;21.70;;;;;;;8.55;100.00;100501.97;5052390;28;20021;-80
2023/12/15 10:42:30;;;;;;;21.15;14.07;;;;;;;8.68;100.00;100525.97;5052601;28;20037;-80
2023/12/15 10:44:57;;;;;;;26.00;19.63;;;;;;;8.45;100.00;100494.34;5047195;28;20091;-80
2023/12/15 10:47:24;;;;;;;28.58;20.30;;;;;;;8.45;100.00;100513.75;5036657;28;20025;-80
2023/12/15 10:49:52;;;;;;;13.60;9.68;;;;;;;8.80;100.00;100558.19;5050909;28;20025;-82
2023/12/15 10:52:22;;;;;;;16.70;11.88;;;;;;;8.61;100.00;100546.41;5052416;28;20033;-80
2023/12/15 10:54:51;;;;;;;36.28;21.50;;;;;;;8.66;100.00;100554.59;5039179;28;20029;-83
2023/12/15 10:57:17;;;;;;;11.35;7.40;;;;;;;8.58;100.00;100542.28;5031836;28;20039;-83
2023/12/15 10:59:42;;;;;;;11.85;8.88;;;;;;;8.84;100.00;100578.84;5031484;28;20029;-80
2023/12/15 11:02:11;;;;;;;12.43;8.70;;;;;;;8.85;100.00;100580.50;5032206;28;20040;-80
2023/12/15 11:04:37;;;;;;;8.43;5.50;;;;;;;8.53;100.00;100528.75;5042942;28;20021;-80
2023/12/15 11:07:03;;;;;;;9.18;6.15;;;;;;;8.61;100.00;100541.09;5051019;28;20124;-80
2023/12/15 11:09:34;;;;;;;6.78;4.32;;;;;;;8.85;100.00;100580.50;5050631;28;20036;-85
2023/12/15 11:12:29;;;;;;;9.63;6.40;;;;;;;8.92;100.00;100561.13;5051506;28;20103;-80
2023/12/15 11:15:00;;;;;;;10.82;6.32;;;;;;;8.89;100.00;100591.59;5051554;28;20087;-80